createdAt,value
2023-05-01T00:01:25.639Z,10.45
2023-05-01T00:04:13.124Z,10.60
2023-05-01T00:07:00.599Z,9.75
2023-05-01T00:09:47.989Z,9.43
2023-05-01T00:12:35.472Z,12.05
2023-05-01T00:15:22.653Z,10.20
2023-05-01T00:18:09.829Z,9.00
2023-05-01T00:20:57.278Z,9.77
2023-05-01T00:23:44.492Z,9.90
2023-05-01T00:26:32.139Z,10.15
2023-05-01T00:29:19.448Z,9.45
2023-05-01T00:32:07.126Z,9.05
2023-05-01T00:34:54.859Z,8.15
2023-05-01T00:37:42.183Z,7.72
2023-05-01T00:40:29.379Z,9.98
2023-05-01T00:43:17.190Z,8.73
2023-05-01T00:46:04.525Z,9.15
2023-05-01T00:48:52.568Z,8.52
2023-05-01T00:51:40.203Z,9.50
2023-05-01T00:54:28.359Z,11.10
2023-05-01T00:57:16.010Z,11.10
2023-05-01T01:00:05.528Z,8.93
2023-05-01T01:02:53.239Z,8.75
2023-05-01T01:05:44.987Z,9.50
2023-05-01T01:08:49.795Z,9.20
2023-05-01T01:11:53.509Z,9.55
2023-05-01T01:15:16.094Z,9.63
2023-05-01T01:18:12.681Z,9.95
2023-05-01T01:21:22.077Z,8.82
2023-05-01T01:24:31.214Z,11.43
2023-05-01T01:27:33.666Z,9.07
2023-05-01T01:31:05.256Z,9.73
2023-05-01T01:34:40.377Z,9.60
2023-05-01T01:37:39.852Z,9.02
2023-05-01T01:40:35.094Z,10.40
2023-05-01T01:43:24.294Z,12.15
2023-05-01T01:46:11.832Z,7.63
2023-05-01T01:49:00.595Z,9.55
2023-05-01T01:51:50.051Z,8.27
2023-05-01T01:54:41.024Z,8.88
2023-05-01T01:57:29.123Z,8.90
2023-05-01T02:00:17.577Z,9.80
2023-05-01T02:05:58.803Z,9.02
2023-05-01T02:08:48.381Z,9.60
2023-05-01T02:11:37.820Z,10.32
2023-05-01T02:14:27.032Z,11.07
2023-05-01T02:17:15.903Z,10.25
2023-05-01T02:20:05.553Z,10.52
2023-05-01T02:22:53.397Z,8.63
2023-05-01T02:25:41.226Z,8.13
2023-05-01T02:28:30.525Z,9.32
2023-05-01T02:31:17.840Z,10.55
2023-05-01T02:34:05.246Z,12.45
2023-05-01T02:36:52.431Z,8.30
2023-05-01T02:39:41.001Z,8.48
2023-05-01T02:42:29.449Z,10.93
2023-05-01T02:45:22.604Z,7.47
2023-05-01T02:48:12.185Z,8.40
2023-05-01T02:51:01.288Z,10.20
2023-05-01T02:53:49.563Z,10.63
2023-05-01T02:56:42.316Z,7.70
2023-05-01T02:59:29.938Z,7.30
2023-05-01T03:02:17.574Z,7.72
2023-05-01T03:05:05.377Z,7.55
2023-05-01T03:07:52.933Z,8.35
2023-05-01T03:10:43.286Z,10.20
2023-05-01T03:13:30.515Z,8.80
2023-05-01T03:16:17.696Z,10.50
2023-05-01T03:19:06.048Z,8.95
2023-05-01T03:21:53.233Z,7.55
2023-05-01T03:24:40.460Z,6.50
2023-05-01T03:27:27.851Z,7.85
2023-05-01T03:30:15.934Z,6.15
2023-05-01T03:33:04.216Z,6.80
2023-05-01T03:36:02.236Z,7.40
2023-05-01T03:38:49.880Z,7.82
2023-05-01T03:41:56.289Z,6.88
2023-05-01T03:44:49.312Z,6.13
2023-05-01T03:47:37.384Z,7.15
2023-05-01T03:50:25.065Z,5.63
2023-05-01T03:53:13.643Z,7.22
2023-05-01T03:56:00.830Z,6.68
2023-05-01T03:58:48.064Z,6.40
2023-05-01T04:01:35.302Z,6.60
2023-05-01T04:04:22.504Z,6.72
2023-05-01T04:07:16.263Z,6.28
2023-05-01T04:10:08.146Z,7.68
2023-05-01T04:12:55.437Z,6.70
2023-05-01T04:15:46.868Z,7.03
2023-05-01T04:18:34.114Z,6.72
2023-05-01T04:21:21.557Z,7.07
2023-05-01T04:24:12.118Z,7.10
2023-05-01T04:26:59.562Z,5.82
2023-05-01T04:29:46.740Z,6.50
2023-05-01T04:32:35.510Z,6.82
2023-05-01T04:35:23.634Z,6.95
2023-05-01T04:38:10.949Z,5.88
2023-05-01T04:40:59.947Z,5.88
2023-05-01T04:43:47.050Z,6.10
2023-05-01T04:46:37.791Z,9.88
2023-05-01T04:49:25.065Z,6.80
2023-05-01T04:52:13.249Z,7.60
2023-05-01T04:55:14.115Z,7.30
2023-05-01T04:58:18.277Z,6.75
2023-05-01T05:01:08.939Z,5.97
2023-05-01T05:03:56.577Z,7.47
2023-05-01T05:06:44.334Z,6.35
2023-05-01T05:09:36.785Z,7.80
2023-05-01T05:12:24.258Z,6.30
2023-05-01T05:15:11.625Z,6.13
2023-05-01T05:17:58.975Z,9.02
2023-05-01T05:20:46.780Z,7.30
2023-05-01T05:23:34.622Z,8.63
2023-05-01T05:26:22.042Z,5.40
2023-05-01T05:29:10.054Z,8.63
2023-05-01T05:31:57.959Z,9.13
2023-05-01T05:34:45.291Z,8.50
2023-05-01T05:37:32.819Z,5.75
2023-05-01T05:40:20.368Z,7.43
2023-05-01T05:43:14.798Z,8.70
2023-05-01T05:46:02.539Z,8.43
2023-05-01T05:48:52.752Z,8.00
2023-05-01T05:51:39.980Z,7.78
2023-05-01T05:54:28.584Z,7.35
2023-05-01T05:57:15.857Z,7.38
2023-05-01T06:00:10.641Z,6.57
2023-05-01T06:03:04.644Z,8.93
2023-05-01T06:05:53.348Z,7.60
2023-05-01T06:08:40.639Z,6.60
2023-05-01T06:11:31.804Z,7.60
2023-05-01T06:14:19.720Z,6.03
2023-05-01T06:17:08.297Z,7.90
2023-05-01T06:19:56.115Z,10.68
2023-05-01T06:22:43.527Z,6.68
2023-05-01T06:25:37.476Z,7.20
2023-05-01T06:28:24.671Z,9.18
2023-05-01T06:31:12.024Z,7.63
2023-05-01T06:34:05.058Z,8.40
2023-05-01T06:37:07.549Z,10.02
2023-05-01T06:39:55.158Z,9.25
2023-05-01T06:42:43.021Z,9.30
2023-05-01T06:45:30.592Z,8.00
2023-05-01T06:48:17.699Z,8.00
2023-05-01T06:51:05.063Z,7.43
2023-05-01T06:53:52.233Z,7.85
2023-05-01T06:56:40.073Z,6.55
2023-05-01T06:59:27.863Z,8.27
2023-05-01T07:02:15.366Z,8.52
2023-05-01T07:05:02.680Z,8.98
2023-05-01T07:07:58.045Z,7.28
2023-05-01T07:10:49.913Z,8.73
2023-05-01T07:13:37.661Z,7.00
2023-05-01T07:16:25.039Z,7.55
2023-05-01T07:19:13.623Z,11.98
2023-05-01T07:22:00.944Z,9.20
2023-05-01T07:24:48.067Z,7.65
2023-05-01T07:27:35.651Z,7.18
2023-05-01T07:30:22.941Z,7.60
2023-05-01T07:33:10.769Z,8.60
2023-05-01T07:35:58.381Z,7.10
2023-05-01T07:38:45.542Z,6.35
2023-05-01T07:41:32.861Z,6.75
2023-05-01T07:44:20.126Z,6.88
2023-05-01T07:47:08.375Z,7.25
2023-05-01T07:49:55.700Z,8.05
2023-05-01T07:52:43.118Z,6.72
2023-05-01T07:55:30.236Z,7.07
2023-05-01T07:58:18.060Z,6.90
2023-05-01T08:01:06.301Z,7.60
2023-05-01T08:03:53.510Z,7.90
2023-05-01T08:06:41.144Z,6.72
2023-05-01T08:09:28.411Z,7.28
2023-05-01T08:12:16.243Z,9.35
2023-05-01T08:15:03.902Z,7.68
2023-05-01T08:17:51.706Z,8.60
2023-05-01T08:20:38.966Z,6.65
2023-05-01T08:23:26.162Z,7.50
2023-05-01T08:26:13.374Z,6.85
2023-05-01T08:29:00.640Z,8.02
2023-05-01T08:31:47.988Z,7.82
2023-05-01T08:34:36.367Z,6.60
2023-05-01T08:37:23.732Z,7.78
2023-05-01T08:40:11.496Z,7.25
2023-05-01T08:43:00.932Z,9.07
2023-05-01T08:45:49.054Z,6.20
2023-05-01T08:48:37.166Z,7.63
2023-05-01T08:51:25.796Z,9.55
2023-05-01T08:54:15.012Z,6.88
2023-05-01T08:57:06.893Z,9.13
2023-05-01T08:59:58.156Z,8.18
2023-05-01T09:02:48.285Z,7.90
2023-05-01T09:05:36.150Z,7.03
2023-05-01T09:08:23.309Z,7.78
2023-05-01T09:11:11.930Z,7.13
2023-05-01T09:14:01.426Z,8.32
2023-05-01T09:16:49.109Z,6.57
2023-05-01T09:19:36.516Z,7.30
2023-05-01T09:22:23.880Z,7.72
2023-05-01T09:25:11.150Z,6.63
2023-05-01T09:27:58.390Z,7.78
2023-05-01T09:30:46.361Z,7.47
2023-05-01T09:33:33.586Z,7.72
2023-05-01T09:36:20.840Z,7.13
2023-05-01T09:39:08.118Z,6.85
2023-05-01T09:41:55.945Z,9.77
2023-05-01T09:44:43.446Z,7.50
2023-05-01T09:47:31.529Z,7.00
2023-05-01T09:50:33.196Z,7.45
2023-05-01T09:53:37.018Z,6.40
2023-05-01T09:56:26.545Z,6.68
2023-05-01T09:59:20.951Z,6.70
2023-05-01T10:02:10.165Z,7.78
2023-05-01T10:05:00.636Z,6.95
2023-05-01T10:07:59.626Z,7.28
2023-05-01T10:11:00.230Z,6.38
2023-05-01T10:14:09.607Z,7.35
2023-05-01T10:16:57.962Z,6.18
2023-05-01T10:19:47.989Z,8.57
2023-05-01T10:22:35.307Z,5.72
2023-05-01T10:25:25.430Z,6.53
2023-05-01T10:28:12.958Z,8.70
2023-05-01T10:31:00.613Z,7.03
2023-05-01T10:33:48.012Z,6.47
2023-05-01T10:36:43.581Z,6.63
2023-05-01T10:39:35.182Z,6.53
2023-05-01T10:42:22.981Z,6.38
2023-05-01T10:45:29.204Z,7.57
2023-05-01T10:48:38.308Z,6.35
2023-05-01T10:51:28.227Z,7.85
2023-05-01T10:54:15.715Z,5.50
2023-05-01T10:57:03.579Z,6.63
2023-05-01T11:00:17.672Z,9.32
2023-05-01T11:03:23.501Z,7.40
2023-05-01T11:06:11.079Z,6.65
2023-05-01T11:08:58.874Z,5.50
2023-05-01T11:11:47.964Z,6.53
2023-05-01T11:15:08.138Z,6.30
2023-05-01T11:17:56.120Z,6.00
2023-05-01T11:20:48.463Z,6.32
2023-05-01T11:23:36.611Z,5.28
2023-05-01T11:26:24.053Z,7.97
2023-05-01T11:29:12.149Z,7.13
2023-05-01T11:32:00.777Z,6.57
2023-05-01T11:34:49.497Z,7.53
2023-05-01T11:37:41.757Z,6.28
2023-05-01T11:40:31.663Z,7.13
2023-05-01T11:43:18.863Z,6.40
2023-05-01T11:46:06.207Z,5.30
2023-05-01T11:48:54.481Z,5.65
2023-05-01T11:51:41.873Z,7.75
2023-05-01T11:54:29.295Z,6.45
2023-05-01T11:57:20.225Z,6.50
2023-05-01T12:03:19.730Z,5.78
2023-05-01T12:06:07.344Z,7.40
2023-05-01T12:08:54.904Z,7.95
2023-05-01T12:11:42.781Z,6.13
2023-05-01T12:14:31.152Z,8.40
2023-05-01T12:17:18.476Z,6.93
2023-05-01T12:20:07.180Z,6.30
2023-05-01T12:22:55.176Z,9.18
2023-05-01T12:25:43.510Z,6.80
2023-05-01T12:28:31.374Z,8.60
2023-05-01T12:31:20.852Z,6.47
2023-05-01T12:34:08.238Z,7.43
2023-05-01T12:36:55.604Z,8.07
2023-05-01T12:39:44.836Z,8.80
2023-05-01T12:45:21.022Z,7.07
2023-05-01T12:48:15.061Z,9.65
2023-05-01T12:51:02.400Z,6.80
2023-05-01T12:53:50.427Z,8.50
2023-05-01T12:56:38.754Z,8.02
2023-05-01T12:59:27.414Z,6.82
2023-05-01T13:02:17.702Z,9.18
2023-05-01T13:05:10.481Z,7.85
2023-05-01T13:07:59.653Z,6.90
2023-05-01T13:10:46.942Z,6.38
2023-05-01T13:13:35.866Z,8.85
2023-05-01T13:16:24.776Z,8.15
2023-05-01T13:19:12.923Z,6.25
2023-05-01T13:22:00.924Z,6.07
2023-05-01T13:24:48.145Z,6.85
2023-05-01T13:27:35.357Z,6.13
2023-05-01T13:30:33.641Z,6.55
2023-05-01T13:33:20.902Z,6.35
2023-05-01T13:36:22.104Z,5.78
2023-05-01T13:39:21.359Z,5.90
2023-05-01T13:42:09.313Z,5.47
2023-05-01T13:44:58.217Z,6.22
2023-05-01T13:47:45.416Z,8.23
2023-05-01T13:50:34.618Z,6.22
2023-05-01T13:53:22.668Z,6.22
2023-05-01T13:56:11.531Z,7.00
2023-05-01T13:59:01.736Z,7.90
2023-05-01T14:01:49.003Z,6.32
2023-05-01T14:04:36.344Z,7.18
2023-05-01T14:07:25.216Z,8.25
2023-05-01T14:10:12.406Z,7.65
2023-05-01T14:12:59.946Z,7.53
2023-05-01T14:15:47.978Z,8.40
2023-05-01T14:18:35.571Z,9.10
2023-05-01T14:21:29.901Z,9.63
2023-05-01T14:24:18.318Z,8.65
2023-05-01T14:27:09.589Z,10.55
2023-05-01T14:29:56.869Z,7.47
2023-05-01T14:32:44.297Z,9.63
2023-05-01T14:35:31.758Z,8.38
2023-05-01T14:38:20.582Z,7.47
2023-05-01T14:41:12.632Z,6.15
2023-05-01T14:44:01.299Z,6.20
2023-05-01T14:46:51.646Z,8.02
2023-05-01T14:49:41.958Z,7.30
2023-05-01T14:52:29.709Z,5.88
2023-05-01T14:55:18.837Z,6.47
2023-05-01T14:58:06.102Z,6.25
2023-05-01T15:00:53.263Z,6.28
2023-05-01T15:03:43.846Z,7.00
2023-05-01T15:09:18.339Z,5.25
2023-05-01T15:12:07.262Z,5.78
2023-05-01T15:14:54.565Z,6.57
2023-05-01T15:17:41.729Z,6.00
2023-05-01T15:20:28.933Z,5.13
2023-05-01T15:23:16.213Z,9.35
2023-05-01T15:26:03.956Z,5.85
2023-05-01T15:28:51.301Z,5.72
2023-05-01T15:31:38.487Z,6.50
2023-05-01T15:34:26.372Z,6.60
2023-05-01T15:37:13.779Z,7.13
2023-05-01T15:40:01.151Z,7.60
2023-05-01T15:42:48.415Z,7.75
2023-05-01T15:45:35.778Z,6.93
2023-05-01T15:48:23.255Z,8.77
2023-05-01T15:51:10.552Z,7.40
2023-05-01T15:53:58.953Z,8.27
2023-05-01T15:56:46.212Z,5.88
2023-05-01T15:59:33.411Z,6.70
2023-05-01T16:02:20.730Z,6.13
2023-05-01T16:05:08.638Z,7.22
2023-05-01T16:07:59.255Z,7.75
2023-05-01T16:10:46.423Z,9.48
2023-05-01T16:13:38.159Z,5.65
2023-05-01T16:16:27.389Z,7.32
2023-05-01T16:19:16.774Z,4.90
2023-05-01T16:22:04.942Z,6.00
2023-05-01T16:24:52.185Z,5.95
2023-05-01T16:27:41.313Z,5.78
2023-05-01T16:30:28.579Z,6.38
2023-05-01T16:33:20.891Z,6.75
2023-05-01T16:36:14.899Z,6.00
2023-05-01T16:39:02.255Z,6.13
2023-05-01T16:41:51.282Z,5.43
2023-05-01T16:44:38.458Z,5.43
2023-05-01T16:47:25.807Z,6.93
2023-05-01T16:50:13.359Z,6.25
2023-05-01T16:53:01.003Z,6.05
2023-05-01T16:55:48.239Z,6.15
2023-05-01T16:58:35.487Z,7.68
2023-05-01T17:01:22.788Z,6.47
2023-05-01T17:04:10.220Z,9.82
2023-05-01T17:06:57.665Z,6.97
2023-05-01T17:09:45.068Z,8.45
2023-05-01T17:12:32.381Z,7.72
2023-05-01T17:15:19.749Z,7.78
2023-05-01T17:18:07.022Z,6.80
2023-05-01T17:20:54.402Z,6.78
2023-05-01T17:23:41.650Z,9.07
2023-05-01T17:26:28.937Z,8.07
2023-05-01T17:29:16.172Z,7.10
2023-05-01T17:32:04.610Z,6.28
2023-05-01T17:34:51.860Z,6.85
2023-05-01T17:37:39.961Z,6.82
2023-05-01T17:40:28.000Z,7.10
2023-05-01T17:43:15.204Z,5.63
2023-05-01T17:46:03.698Z,6.28
2023-05-01T17:48:50.822Z,5.35
2023-05-01T17:51:38.046Z,6.85
2023-05-01T17:54:25.460Z,7.20
2023-05-01T17:57:12.744Z,8.15
2023-05-01T18:00:00.261Z,6.10
2023-05-01T18:02:48.336Z,9.35
2023-05-01T18:05:35.601Z,8.35
2023-05-01T18:08:23.448Z,9.43
2023-05-01T18:11:11.150Z,9.18
2023-05-01T18:13:58.334Z,6.85
2023-05-01T18:16:45.743Z,5.95
2023-05-01T18:19:33.060Z,6.10
2023-05-01T18:22:20.291Z,6.95
2023-05-01T18:25:07.823Z,6.30
2023-05-01T18:27:56.255Z,5.32
2023-05-01T18:30:43.790Z,5.30
2023-05-01T18:33:31.481Z,6.00
2023-05-01T18:36:18.747Z,6.45
2023-05-01T18:39:05.925Z,6.00
2023-05-01T18:41:54.471Z,5.20
2023-05-01T18:44:41.754Z,6.22
2023-05-01T18:47:29.156Z,5.75
2023-05-01T18:50:21.573Z,6.88
2023-05-01T18:53:08.853Z,7.65
2023-05-01T18:55:56.217Z,6.43
2023-05-01T18:58:43.521Z,6.10
2023-05-01T19:01:30.746Z,6.80
2023-05-01T19:04:18.743Z,7.88
2023-05-01T19:07:06.130Z,7.80
2023-05-01T19:09:53.360Z,8.73
2023-05-01T19:12:41.875Z,7.10
2023-05-01T19:15:29.319Z,9.40
2023-05-01T19:18:16.901Z,9.20
2023-05-01T19:21:05.434Z,10.20
2023-05-01T19:23:52.525Z,10.00
2023-05-01T19:26:39.713Z,8.48
2023-05-01T19:29:27.201Z,9.65
2023-05-01T19:32:14.525Z,8.48
2023-05-01T19:35:01.985Z,7.75
2023-05-01T19:37:55.437Z,9.30
2023-05-01T19:40:44.932Z,7.93
2023-05-01T19:43:32.566Z,7.80
2023-05-01T19:46:19.859Z,7.80
2023-05-01T19:49:07.193Z,6.38
2023-05-01T19:51:54.509Z,8.35
2023-05-01T19:54:43.654Z,7.22
2023-05-01T19:57:31.389Z,8.50
2023-05-01T20:00:18.671Z,7.70
2023-05-01T20:03:06.087Z,8.70
2023-05-01T20:05:53.425Z,7.20
2023-05-01T20:08:44.367Z,7.55
2023-05-01T20:11:32.115Z,10.05
2023-05-01T20:14:19.302Z,9.13
2023-05-01T20:17:07.423Z,8.25
2023-05-01T20:19:54.832Z,7.35
2023-05-01T20:22:42.154Z,7.15
2023-05-01T20:25:29.337Z,8.35
2023-05-01T20:28:16.526Z,7.93
2023-05-01T20:31:03.795Z,7.78
2023-05-01T20:33:50.937Z,8.35
2023-05-01T20:36:38.638Z,7.68
2023-05-01T20:39:26.239Z,8.15
2023-05-01T20:42:13.393Z,7.60
2023-05-01T20:45:00.645Z,7.47
2023-05-01T20:47:49.148Z,7.53
2023-05-01T20:50:36.436Z,9.82
2023-05-01T20:53:23.856Z,9.63
2023-05-01T20:56:11.128Z,8.88
2023-05-01T20:59:00.343Z,9.18
2023-05-01T21:01:47.761Z,9.38
2023-05-01T21:04:34.992Z,9.15
2023-05-01T21:07:22.321Z,8.30
2023-05-01T21:10:10.988Z,12.30
2023-05-01T21:12:58.710Z,9.27
2023-05-01T21:15:47.032Z,9.95
2023-05-01T21:18:34.477Z,10.85
2023-05-01T21:21:21.968Z,12.75
2023-05-01T21:24:19.058Z,11.82
2023-05-01T21:27:08.381Z,9.55
2023-05-01T21:30:01.797Z,12.70
2023-05-01T21:32:49.430Z,10.70
2023-05-01T21:35:37.539Z,10.48
2023-05-01T21:38:24.809Z,12.60
2023-05-01T21:41:15.228Z,10.80
2023-05-01T21:44:03.761Z,15.93
2023-05-01T21:46:54.299Z,14.82
2023-05-01T21:49:41.670Z,12.48
2023-05-01T21:52:29.329Z,11.38
2023-05-01T21:55:26.615Z,13.48
2023-05-01T21:58:13.962Z,11.07
2023-05-01T22:01:01.451Z,11.20
2023-05-01T22:03:49.882Z,11.73
2023-05-01T22:06:37.529Z,11.63
2023-05-01T22:09:24.765Z,9.73
2023-05-01T22:12:11.963Z,9.45
2023-05-01T22:14:59.213Z,8.50
2023-05-01T22:17:46.565Z,9.98
2023-05-01T22:20:33.980Z,9.85
2023-05-01T22:23:21.747Z,11.38
2023-05-01T22:26:09.293Z,11.98
2023-05-01T22:28:56.665Z,10.80
2023-05-01T22:31:44.489Z,9.13
2023-05-01T22:34:31.775Z,10.70
2023-05-01T22:37:19.637Z,13.45
2023-05-01T22:40:07.627Z,11.60
2023-05-01T22:42:54.804Z,15.13
2023-05-01T22:45:42.888Z,16.80
2023-05-01T22:48:30.073Z,14.95
2023-05-01T22:51:17.364Z,15.35
2023-05-01T22:54:05.147Z,14.95
2023-05-01T22:56:52.482Z,20.48
2023-05-01T22:59:40.614Z,13.45
2023-05-01T23:02:27.973Z,14.43
2023-05-01T23:05:15.706Z,14.95
2023-05-01T23:08:02.956Z,17.00
2023-05-01T23:10:50.227Z,15.30
2023-05-01T23:13:41.936Z,16.75
2023-05-01T23:16:36.500Z,17.80
2023-05-01T23:19:24.981Z,18.75
2023-05-01T23:22:15.383Z,18.35
2023-05-01T23:25:02.761Z,23.80
2023-05-01T23:27:51.917Z,19.42
2023-05-01T23:30:40.562Z,22.02
2023-05-01T23:33:37.791Z,25.42
2023-05-01T23:36:24.950Z,23.90
2023-05-01T23:39:13.954Z,27.88
2023-05-01T23:42:01.306Z,24.08
2023-05-01T23:44:48.746Z,27.98
2023-05-01T23:47:37.505Z,27.13
2023-05-01T23:50:25.408Z,28.15
2023-05-01T23:53:12.820Z,24.20
2023-05-01T23:55:59.974Z,23.63
2023-05-01T23:58:47.152Z,24.48
